createdAt,value
2022-11-05T00:02:36.736Z,97
2022-11-05T00:12:36.767Z,97
2022-11-05T00:22:36.719Z,97
2022-11-05T00:32:36.706Z,97
2022-11-05T00:42:36.705Z,97
2022-11-05T00:52:36.702Z,97
2022-11-05T01:02:36.811Z,97
2022-11-05T01:12:36.686Z,97
2022-11-05T01:22:36.620Z,97
2022-11-05T01:32:36.639Z,97
2022-11-05T01:42:36.645Z,97
2022-11-05T01:52:36.598Z,97
2022-11-05T02:02:36.680Z,97
2022-11-05T02:12:36.615Z,97
2022-11-05T02:22:36.564Z,97
2022-11-05T02:32:36.549Z,97
2022-11-05T02:42:36.594Z,97
2022-11-05T02:52:36.529Z,97
2022-11-05T03:02:36.632Z,97
2022-11-05T03:12:36.529Z,97
2022-11-05T03:22:36.516Z,97
2022-11-05T03:32:36.463Z,97
2022-11-05T03:42:36.457Z,97
2022-11-05T03:52:36.496Z,97
2022-11-05T04:12:36.423Z,97
2022-11-05T04:22:36.445Z,97
2022-11-05T04:32:36.395Z,97
2022-11-05T04:42:36.396Z,97
2022-11-05T04:52:36.417Z,97
2022-11-05T05:02:36.370Z,97
2022-11-05T05:12:36.355Z,97
2022-11-05T05:22:36.376Z,97
2022-11-05T05:32:36.329Z,97
2022-11-05T05:42:41.766Z,97
2022-11-05T05:52:36.342Z,97
2022-11-05T06:02:36.395Z,97
2022-11-05T06:12:36.303Z,97
2022-11-05T06:22:36.291Z,97
2022-11-05T06:32:36.271Z,97
2022-11-05T06:42:36.251Z,97
2022-11-05T06:52:40.884Z,97
2022-11-05T07:02:36.212Z,97
2022-11-05T07:12:36.211Z,97
2022-11-05T07:22:36.248Z,97
2022-11-05T07:32:36.185Z,97
2022-11-05T07:42:36.182Z,97
2022-11-05T07:52:36.176Z,97
2022-11-05T08:02:36.262Z,97
2022-11-05T08:12:36.174Z,97
2022-11-05T08:22:36.175Z,97
2022-11-05T08:32:36.128Z,98
2022-11-05T08:42:36.113Z,98
2022-11-05T08:52:36.149Z,98
2022-11-05T09:02:36.164Z,98
2022-11-05T09:12:36.101Z,97
2022-11-05T09:22:40.580Z,97
2022-11-05T09:32:36.011Z,97
2022-11-05T09:42:36.050Z,97
2022-11-05T09:52:36.044Z,97
2022-11-05T10:02:36.168Z,97
2022-11-05T10:12:36.002Z,97
2022-11-05T10:22:35.993Z,97
2022-11-05T10:32:35.936Z,97
2022-11-05T10:42:35.948Z,97
2022-11-05T10:52:35.968Z,96
2022-11-05T11:02:35.944Z,96
2022-11-05T11:12:40.725Z,96
2022-11-05T11:22:35.904Z,95
2022-11-05T11:32:35.843Z,95
2022-11-05T11:42:35.867Z,95
2022-11-05T11:52:35.863Z,95
2022-11-05T12:02:35.883Z,95
2022-11-05T12:12:35.810Z,94
2022-11-05T12:22:35.811Z,94
2022-11-05T12:32:35.880Z,94
2022-11-05T12:42:35.781Z,94
2022-11-05T12:52:35.731Z,94
2022-11-05T13:02:35.773Z,93
2022-11-05T13:12:35.731Z,93
2022-11-05T13:22:35.686Z,93
2022-11-05T13:32:35.669Z,93
2022-11-05T13:42:35.711Z,93
2022-11-05T13:52:35.643Z,93
2022-11-05T14:02:35.637Z,93
2022-11-05T14:12:35.620Z,93
2022-11-05T14:22:35.577Z,93
2022-11-05T14:32:35.550Z,92
2022-11-05T14:42:35.579Z,92
2022-11-05T14:52:35.557Z,91
2022-11-05T15:02:35.605Z,90
2022-11-05T15:12:35.520Z,90
2022-11-05T15:22:35.477Z,90
2022-11-05T15:32:38.411Z,89
2022-11-05T15:42:35.484Z,89
2022-11-05T15:52:35.424Z,88
2022-11-05T16:02:35.583Z,88
2022-11-05T16:12:35.422Z,87
2022-11-05T16:22:35.358Z,87
2022-11-05T16:32:35.357Z,87
2022-11-05T16:42:35.370Z,87
2022-11-05T16:52:35.316Z,87
2022-11-05T17:02:35.441Z,87
2022-11-05T17:12:35.311Z,87
2022-11-05T17:22:35.330Z,87
2022-11-05T17:32:35.342Z,87
2022-11-05T17:42:35.262Z,87
2022-11-05T17:52:35.292Z,87
2022-11-05T18:02:35.305Z,87
2022-11-05T18:12:35.194Z,88
2022-11-05T18:22:35.236Z,88
2022-11-05T18:32:35.182Z,88
2022-11-05T18:42:35.181Z,88
2022-11-05T18:52:35.197Z,88
2022-11-05T19:02:35.290Z,89
2022-11-05T19:22:35.166Z,89
2022-11-05T19:32:35.133Z,89
2022-11-05T19:42:35.111Z,89
2022-11-05T19:52:35.087Z,89
2022-11-05T20:02:35.223Z,89
2022-11-05T20:12:35.059Z,90
2022-11-05T20:22:35.092Z,90
2022-11-05T20:32:35.047Z,90
2022-11-05T20:42:35.045Z,90
2022-11-05T20:52:35.022Z,90
2022-11-05T21:02:35.217Z,90
2022-11-05T21:12:35.003Z,90
2022-11-05T21:22:35.045Z,90
2022-11-05T21:32:34.964Z,90
2022-11-05T21:42:34.996Z,90
2022-11-05T21:52:34.949Z,90
2022-11-05T22:02:35.041Z,91
2022-11-05T22:12:34.966Z,91
2022-11-05T22:22:34.956Z,91
2022-11-05T22:32:34.900Z,91
2022-11-05T22:42:34.979Z,91
2022-11-05T22:52:34.887Z,91
2022-11-05T23:02:35.031Z,91
2022-11-05T23:12:34.912Z,91
2022-11-05T23:22:34.882Z,91
2022-11-05T23:32:34.839Z,91
2022-11-05T23:42:34.874Z,91
2022-11-05T23:52:34.840Z,91
